Valley Springs, South Dakota
Current Conditions -  °F | °C
As of 7:14 AM on Wednesday 22 Oct 2014 (Local Time) from KLYV Reporting Station
Scattered Clouds Scattered Clouds  
Wind Chill: 54°   Ceiling: Unl
Heat Index: 54°   Visibility: 10mi
Dew Point: 43°   Wind: 16mph
Humidity: 67%   Direction: 160°SSE
Pressure: 30.03"   Gusts: NA
Location:  43.58°N, 96.47°W
Report Text: KLYV 221214Z AUTO 16014KT 10SM SCT080 12/06 A3003 RMK AO2
Loading
Personal Weather Stations






























Interactive Weather Map
Tropical Storm Tracking
New forecast layout! Learn more

10-Day Weather Forecast

Advertisements
Track Severe Weather on mobile